Weather at Dryden Regional Airport

Public forecast

Using degrees Celsius for public forecast. Weather courtesy of forecast.io.

Current aviation weather report (METAR) for Dryden Regional Airport

Retrieved 2021/09/27 00:00 UTC (8 minutes ago):

CYHD 270000Z AUTO 01006KT 9SM CLR 15/06 A2975 RMK SLP088 DENSITY ALT 1900FT

Aviation forecast (TAF) for Dryden Regional Airport

Retrieved 2021/09/26 20:48 UTC (3 hours ago):

TAF CYHD 261944Z 2620/2708 VRB03KT P6SM FEW040 BECMG 2700/2702 03005KT RMK FCST BASED ON AUTO OBS NXT FCST BY 270200Z